Terminal Aerodrome Forecast
Issued by NWS Tallahassee, FL

Home | Current Version | Previous Version | Text Only | Print | Product List | Glossary On
Versions: 1 2 3 4 5 6 7 8 9 10 11 12 13 14 15 16 17 18 19 20 21
000
FTUS42 KTAE 192300
TAFTLH
TAF
KTLH 192327Z 2000/2024 03008KT P6SM BKN020
     FM200500 01010KT P6SM OVC006
     FM201400 03006KT P6SM BKN015
     FM201700 02007KT P6SM SCT015 BKN050=

USA.gov is the U.S. government's official web portal to all federal, state and local government web resources and services.